createdAt,value
2018-10-01T00:03:36.542Z,66.03
2018-10-01T00:08:39.730Z,66.23
2018-10-01T00:13:42.929Z,66.78
2018-10-01T00:18:46.077Z,66.62
2018-10-01T00:23:49.144Z,66.74
2018-10-01T00:28:52.307Z,67.19
2018-10-01T00:33:55.408Z,68.05
2018-10-01T00:38:58.563Z,67.96
2018-10-01T00:44:01.740Z,68.03
2018-10-01T00:49:05.312Z,67.74
2018-10-01T00:54:08.513Z,67.92
2018-10-01T00:59:11.612Z,68.14
2018-10-01T01:04:14.835Z,68.46
2018-10-01T01:09:17.925Z,68.93
2018-10-01T01:14:21.035Z,69.47
2018-10-01T01:19:24.263Z,69.54
2018-10-01T01:24:27.408Z,69.53
2018-10-01T01:29:30.596Z,69.94
2018-10-01T01:34:33.687Z,69.99
2018-10-01T01:39:36.815Z,70.73
2018-10-01T01:44:39.984Z,70.72
2018-10-01T01:49:43.059Z,70.33
2018-10-01T01:54:46.110Z,70.56
2018-10-01T01:59:49.179Z,70.47
2018-10-01T02:04:52.268Z,70.48
2018-10-01T02:09:55.323Z,70.79
2018-10-01T02:14:58.407Z,70.27
2018-10-01T02:20:01.528Z,70.74
2018-10-01T02:25:04.803Z,70.76
2018-10-01T02:30:08.016Z,71.05
2018-10-01T02:35:11.157Z,70.43
2018-10-01T02:40:14.360Z,71.06
2018-10-01T02:45:17.875Z,71.64
2018-10-01T02:50:21.811Z,73.29
2018-10-01T02:55:24.888Z,74.75
2018-10-01T03:00:28.004Z,75.06
2018-10-01T03:05:31.223Z,76.14
2018-10-01T03:10:34.659Z,76.56
2018-10-01T03:15:38.048Z,77.31
2018-10-01T03:20:41.527Z,77.65
2018-10-01T03:25:51.363Z,78.58
2018-10-01T03:30:54.854Z,79.18
2018-10-01T03:35:58.278Z,80.27
2018-10-01T03:41:01.696Z,80.27
2018-10-01T03:46:05.082Z,80.81
2018-10-01T03:51:08.617Z,80.82
2018-10-01T03:56:11.985Z,80.45
2018-10-01T04:01:15.356Z,80.26
2018-10-01T04:06:18.735Z,79.69
2018-10-01T04:11:22.065Z,80.01
2018-10-01T04:16:25.481Z,79.37
2018-10-01T04:21:28.612Z,79.76
2018-10-01T04:26:31.707Z,79.65
2018-10-01T04:31:34.868Z,79.14
2018-10-01T04:36:37.935Z,79.50
2018-10-01T04:41:41.526Z,78.88
2018-10-01T04:46:44.681Z,78.94
2018-10-01T04:51:47.790Z,78.84
2018-10-01T04:56:50.972Z,78.19
2018-10-01T05:01:54.149Z,78.21
2018-10-01T05:06:57.256Z,78.29
2018-10-01T05:12:00.708Z,78.03
2018-10-01T05:17:03.824Z,78.07
2018-10-01T05:22:07.037Z,78.53
2018-10-01T05:27:10.222Z,78.00
2018-10-01T05:32:13.323Z,77.90
2018-10-01T05:37:16.378Z,77.50
2018-10-01T05:42:19.456Z,78.03
2018-10-01T05:47:22.520Z,78.32
2018-10-01T05:52:25.645Z,78.59
2018-10-01T05:57:28.767Z,78.17
2018-10-01T06:02:31.917Z,78.03
2018-10-01T06:07:35.009Z,77.68
2018-10-01T06:12:38.107Z,77.79
2018-10-01T06:17:41.216Z,77.70
2018-10-01T06:22:44.306Z,77.89
2018-10-01T06:27:47.406Z,77.79
2018-10-01T06:32:50.515Z,77.84
2018-10-01T06:37:53.601Z,77.59
2018-10-01T06:42:56.717Z,77.56
2018-10-01T06:47:59.854Z,76.96
2018-10-01T06:53:02.942Z,77.18
2018-10-01T06:58:06.227Z,76.39
2018-10-01T07:14:13.015Z,74.51
2018-10-01T07:19:16.083Z,73.97
2018-10-01T07:24:19.139Z,73.65
2018-10-01T07:29:22.215Z,74.06
2018-10-01T07:34:25.312Z,74.23
2018-10-01T07:39:28.408Z,74.27
2018-10-01T07:44:31.471Z,74.32
2018-10-01T07:49:34.550Z,73.37
2018-10-01T07:54:37.622Z,72.69
2018-10-01T07:59:40.768Z,72.82
2018-10-01T08:04:43.767Z,72.19
2018-10-01T08:09:46.820Z,71.86
2018-10-01T08:14:49.887Z,71.41
2018-10-01T08:19:52.962Z,70.48
2018-10-01T08:24:56.095Z,69.50
2018-10-01T08:29:59.397Z,69.03
2018-10-01T08:35:02.335Z,68.56
2018-10-01T08:40:05.870Z,67.86
2018-10-01T08:45:08.963Z,66.76
2018-10-01T08:50:16.118Z,64.83
2018-10-01T08:55:19.675Z,64.38
2018-10-01T09:00:22.756Z,63.06
2018-10-01T09:05:25.859Z,63.84
2018-10-01T09:10:28.936Z,61.74
2018-10-01T09:15:32.063Z,58.29
2018-10-01T09:20:35.174Z,59.35
2018-10-01T09:25:38.206Z,59.50
2018-10-01T09:30:41.269Z,59.46
2018-10-01T09:35:44.375Z,57.19
2018-10-01T09:40:47.471Z,55.57
2018-10-01T09:45:50.588Z,53.64
2018-10-01T09:50:53.687Z,53.51
2018-10-01T09:55:56.822Z,54.49
2018-10-01T10:01:05.439Z,53.81
2018-10-01T10:06:08.686Z,52.53
2018-10-01T10:11:11.758Z,53.09
2018-10-01T10:16:14.936Z,53.39
2018-10-01T10:21:17.991Z,52.54
2018-10-01T10:26:21.108Z,54.59
2018-10-01T10:31:24.133Z,54.72
2018-10-01T10:36:27.624Z,53.50
2018-10-01T10:41:31.607Z,52.09
2018-10-01T10:46:35.651Z,50.56
2018-10-01T10:51:39.399Z,52.56
2018-10-01T10:56:43.868Z,50.97
2018-10-01T11:01:47.732Z,48.82
2018-10-01T11:06:51.778Z,49.66
2018-10-01T11:11:54.883Z,49.10
2018-10-01T11:16:57.987Z,49.99
2018-10-01T11:22:01.084Z,49.72
2018-10-01T11:27:04.264Z,55.46
2018-10-01T11:32:07.441Z,58.61
2018-10-01T11:37:10.584Z,58.19
2018-10-01T11:42:13.704Z,57.06
2018-10-01T11:47:16.792Z,55.39
2018-10-01T11:52:19.877Z,54.12
2018-10-01T11:57:23.087Z,55.70
2018-10-01T12:02:26.296Z,56.83
2018-10-01T12:07:29.402Z,59.23
2018-10-01T12:12:32.463Z,66.05
2018-10-01T12:17:35.557Z,70.55
2018-10-01T12:22:38.689Z,71.55
2018-10-01T12:27:42.029Z,72.09
2018-10-01T12:32:44.928Z,70.39
2018-10-01T12:37:48.059Z,68.29
2018-10-01T12:42:51.321Z,65.57
2018-10-01T12:47:54.512Z,64.69
2018-10-01T12:52:57.581Z,62.60
2018-10-01T12:58:00.605Z,61.23
2018-10-01T13:03:03.689Z,61.37
2018-10-01T13:08:06.770Z,62.09
2018-10-01T13:13:09.911Z,58.90
2018-10-01T13:18:13.094Z,58.95
2018-10-01T13:23:16.180Z,62.53
2018-10-01T13:28:19.277Z,66.88
2018-10-01T13:33:22.404Z,69.59
2018-10-01T13:38:25.584Z,68.02
2018-10-01T13:43:28.672Z,66.06
2018-10-01T13:48:31.778Z,63.70
2018-10-01T13:53:34.889Z,66.58
2018-10-01T13:58:37.996Z,67.03
2018-10-01T14:03:41.080Z,68.61
2018-10-01T14:08:44.175Z,71.27
2018-10-01T14:13:47.551Z,72.03
2018-10-01T14:18:50.979Z,70.81
2018-10-01T14:23:54.529Z,70.88
2018-10-01T14:28:57.691Z,70.03
2018-10-01T14:34:00.862Z,68.92
2018-10-01T14:39:05.418Z,67.80
2018-10-01T14:44:09.411Z,65.40
2018-10-01T14:49:12.719Z,64.88
2018-10-01T14:54:16.458Z,64.65
2018-10-01T14:59:19.875Z,63.29
2018-10-01T15:04:23.226Z,62.52
2018-10-01T15:09:26.660Z,61.31
2018-10-01T15:14:29.999Z,62.53
2018-10-01T15:19:33.605Z,62.20
2018-10-01T15:24:37.210Z,67.74
2018-10-01T15:29:40.487Z,69.65
2018-10-01T15:34:43.832Z,70.00
2018-10-01T15:39:47.635Z,68.84
2018-10-01T15:44:52.427Z,66.71
2018-10-01T15:49:55.565Z,63.68
2018-10-01T15:54:58.792Z,63.06
2018-10-01T16:00:02.022Z,62.18
2018-10-01T16:05:05.723Z,63.02
2018-10-01T16:10:08.931Z,63.63
2018-10-01T16:15:12.136Z,63.40
2018-10-01T16:20:15.241Z,62.92
2018-10-01T16:25:19.380Z,63.12
2018-10-01T16:30:22.537Z,63.07
2018-10-01T16:35:25.707Z,62.27
2018-10-01T16:40:28.925Z,62.20
2018-10-01T16:45:32.019Z,61.71
2018-10-01T16:50:35.193Z,62.00
2018-10-01T16:55:38.312Z,65.39
2018-10-01T17:00:41.455Z,67.72
2018-10-01T17:05:44.576Z,67.28
2018-10-01T17:10:47.670Z,68.27
2018-10-01T17:15:51.086Z,69.03
2018-10-01T17:20:54.464Z,70.00
2018-10-01T17:25:57.573Z,70.53
2018-10-01T17:31:00.709Z,71.21
2018-10-01T17:36:03.912Z,71.81
2018-10-01T17:41:07.360Z,70.55
2018-10-01T17:46:10.639Z,74.62
2018-10-01T17:51:13.866Z,75.14
2018-10-01T17:56:17.015Z,75.02
2018-10-01T18:01:20.092Z,75.17
2018-10-01T18:06:23.344Z,74.70
2018-10-01T18:11:26.493Z,74.37
2018-10-01T18:16:30.588Z,75.16
2018-10-01T18:21:33.821Z,74.81
2018-10-01T18:26:36.919Z,74.60
2018-10-01T18:31:40.057Z,74.00
2018-10-01T18:36:43.277Z,74.64
2018-10-01T18:41:47.686Z,74.63
2018-10-01T18:46:51.025Z,75.08
2018-10-01T18:51:54.172Z,74.64
2018-10-01T18:56:57.261Z,74.65
2018-10-01T19:02:00.392Z,74.87
2018-10-01T19:07:03.702Z,75.18
2018-10-01T19:12:06.853Z,75.55
2018-10-01T19:17:09.952Z,75.65
2018-10-01T19:22:13.109Z,75.28
2018-10-01T19:27:16.324Z,75.11
2018-10-01T19:32:19.364Z,75.23
2018-10-01T19:37:22.482Z,75.17
2018-10-01T19:42:25.598Z,75.07
2018-10-01T19:47:28.691Z,75.37
2018-10-01T19:52:31.783Z,75.10
2018-10-01T19:57:35.992Z,74.82
2018-10-01T20:02:39.117Z,74.81
2018-10-01T20:07:42.191Z,75.43
2018-10-01T20:12:45.247Z,74.74
2018-10-01T20:17:48.592Z,74.79
2018-10-01T20:22:51.694Z,75.21
2018-10-01T20:27:54.842Z,75.30
2018-10-01T20:32:57.851Z,75.03
2018-10-01T20:38:01.007Z,74.76
2018-10-01T20:43:05.859Z,74.96
2018-10-01T20:48:09.016Z,74.36
2018-10-01T20:53:12.166Z,74.65
2018-10-01T20:58:15.268Z,74.51
2018-10-01T21:03:18.362Z,74.22
2018-10-01T21:08:21.491Z,74.35
2018-10-01T21:13:24.620Z,74.92
2018-10-01T21:18:27.742Z,75.03
2018-10-01T21:23:30.819Z,75.09
2018-10-01T21:28:33.881Z,75.07
2018-10-01T21:33:36.932Z,75.67
2018-10-01T21:38:42.713Z,75.37
2018-10-01T21:43:45.838Z,75.38
2018-10-01T21:48:48.939Z,75.21
2018-10-01T21:53:52.020Z,75.69
2018-10-01T21:58:55.099Z,75.70
2018-10-01T22:03:58.204Z,76.06
2018-10-01T22:09:01.299Z,76.21
2018-10-01T22:14:04.865Z,76.42
2018-10-01T22:19:07.927Z,76.12
2018-10-01T22:24:11.065Z,75.92
2018-10-01T22:29:14.169Z,76.12
2018-10-01T22:34:17.255Z,76.41
2018-10-01T22:39:20.336Z,76.06
2018-10-01T22:44:23.422Z,76.51
2018-10-01T22:49:26.523Z,76.09
2018-10-01T22:54:29.603Z,76.25
2018-10-01T22:59:32.715Z,76.72
2018-10-01T23:04:35.799Z,76.46
2018-10-01T23:09:38.955Z,77.19
2018-10-01T23:14:42.036Z,76.80
2018-10-01T23:19:45.168Z,76.89
2018-10-01T23:24:48.283Z,77.00
2018-10-01T23:29:51.389Z,77.11
2018-10-01T23:34:54.495Z,77.03
2018-10-01T23:39:57.570Z,77.19
2018-10-01T23:45:00.635Z,76.65
2018-10-01T23:50:03.891Z,77.11
2018-10-01T23:55:07.147Z,77.18
